Time;durP1;ratioP1;P1;durP2;ratioP2;P2;SDS_P1;SDS_P2;PMS_P1;PMS_P2;Temp;Humidity;BMP_temperature;BMP_pressure;BME280_temperature;BME280_humidity;BME280_pressure;Samples;Min_cycle;Max_cycle;Signal;HPM_P1;HPM_P2
2021/05/22 00:00:11;;;;;;;0.70;0.60;;;10.00;99.90;;;10.11;100.00;-20957.31;5112370;28;20445;-74
2021/05/22 00:02:39;;;;;;;0.70;0.60;;;9.80;99.90;;;10.14;100.00;-20958.13;5112513;28;20433;-74
2021/05/22 00:05:08;;;;;;;0.70;0.60;;;9.80;99.90;;;10.08;100.00;-20956.47;5111893;28;20537;-74
2021/05/22 00:07:36;;;;;;;0.70;0.50;;;9.80;99.90;;;10.06;100.00;-20955.91;5139684;27;20495;-74
2021/05/22 00:10:06;;;;;;;0.70;0.60;;;9.80;99.90;;;10.08;100.00;-20956.47;5111753;28;20425;-76
2021/05/22 00:12:34;;;;;;;0.70;0.60;;;9.80;99.90;;;9.98;100.00;-20953.72;5130406;28;20448;-75
2021/05/22 00:15:03;;;;;;;0.70;0.60;;;9.70;99.90;;;9.89;100.00;-20951.22;5133503;27;20422;-74
2021/05/22 00:17:31;;;;;;;0.70;0.60;;;9.60;99.90;;;9.81;100.00;-20949.00;5132202;28;20451;-74
2021/05/22 00:19:59;;;;;;;0.70;0.60;;;9.50;99.90;;;9.78;100.00;-20948.31;5117325;28;20441;-72
2021/05/22 00:22:28;;;;;;;0.70;0.50;;;9.50;99.90;;;9.88;100.00;-20950.94;5116468;28;20540;-74
2021/05/22 00:24:56;;;;;;;0.70;0.57;;;9.60;99.90;;;9.95;100.00;-20952.88;5116682;27;20468;-73
2021/05/22 00:27:24;;;;;;;0.70;0.60;;;9.60;99.90;;;10.04;100.00;-20955.22;5115789;28;20816;-72
2021/05/22 00:29:51;;;;;;;0.70;0.50;;;9.70;99.90;;;10.08;100.00;-20956.47;5115617;28;20419;-74
2021/05/22 00:32:20;;;;;;;0.70;0.60;;;9.70;99.90;;;10.11;100.00;-20957.16;5115452;28;20437;-73
2021/05/22 00:34:48;;;;;;;0.70;0.60;;;9.70;99.90;;;10.18;100.00;-20959.09;5135186;27;20520;-73
2021/05/22 00:37:16;;;;;;;0.70;0.60;;;9.80;99.90;;;10.17;100.00;-20958.81;5137183;27;20517;-72
2021/05/22 00:39:44;;;;;;;0.70;0.60;;;9.80;99.90;;;10.13;100.00;-20957.84;5103452;27;20473;-73
2021/05/22 00:42:14;;;;;;;0.70;0.60;;;9.80;99.90;;;10.03;100.00;-20955.09;5133131;27;21049;-73
2021/05/22 00:45:03;;;;;;;0.70;0.60;;;9.70;99.90;;;9.96;100.00;-20953.00;5135747;27;20436;-73
2021/05/22 00:47:32;;;;;;;0.70;0.60;;;9.70;99.90;;;10.00;100.00;-20954.25;5135358;27;20441;-73
2021/05/22 00:50:00;;;;;;;0.77;0.67;;;9.60;99.90;;;10.22;100.00;-20960.22;5135495;27;20741;-72
2021/05/22 00:52:28;;;;;;;0.70;0.60;;;9.80;99.90;;;10.27;100.00;-20961.47;5134723;27;21035;-75
2021/05/22 00:54:57;;;;;;;0.70;0.60;;;9.90;99.90;;;10.32;100.00;-20962.84;5132062;27;20491;-72
2021/05/22 00:57:25;;;;;;;0.70;0.60;;;9.90;99.90;;;10.28;100.00;-20961.75;5116486;28;20931;-73
2021/05/22 00:59:53;;;;;;;0.70;0.60;;;9.90;99.90;;;10.28;100.00;-20961.88;5114761;28;20914;-73
2021/05/22 01:02:24;;;;;;;0.70;0.60;;;9.80;99.90;;;10.18;100.00;-20959.09;5118692;27;20454;-73
2021/05/22 01:04:56;;;;;;;0.70;0.60;;;9.80;99.90;;;10.13;100.00;-20957.84;5136667;27;20438;-72
2021/05/22 01:07:26;;;;;;;0.70;0.50;;;9.70;99.90;;;10.23;100.00;-20960.34;5135332;27;20451;-73
2021/05/22 01:09:56;;;;;;;0.70;0.60;;;9.70;99.90;;;10.15;100.00;-20958.41;5135629;27;20411;-72
2021/05/22 01:12:31;;;;;;;0.70;0.50;;;9.70;99.90;;;10.01;100.00;-20954.53;5118826;27;20539;-73
2021/05/22 01:15:07;;;;;;;0.70;0.60;;;9.70;99.90;;;9.96;100.00;-20953.16;5103339;27;20429;-73
2021/05/22 01:17:41;;;;;;;0.70;0.60;;;9.60;99.90;;;10.00;100.00;-20954.25;5114777;27;20445;-73
2021/05/22 01:20:24;;;;;;;0.80;0.70;;;9.60;99.90;;;10.01;100.00;-20954.41;5117333;27;20955;-72
2021/05/22 01:22:57;;;;;;;0.70;0.60;;;9.60;99.90;;;9.99;100.00;-20953.97;5136418;27;20791;-73
2021/05/22 01:25:30;;;;;;;0.70;0.60;;;9.60;99.90;;;9.99;100.00;-20953.97;5118360;27;20767;-74
2021/05/22 01:28:02;;;;;;;0.70;0.60;;;9.60;99.90;;;10.08;100.00;-20956.47;5118046;27;20988;-73
2021/05/22 01:30:31;;;;;;;0.70;0.60;;;9.70;99.90;;;10.12;100.00;-20957.44;5121118;27;20894;-73
2021/05/22 01:32:59;;;;;;;0.80;0.60;;;9.70;99.90;;;10.22;100.00;-20960.22;5133780;27;20438;-72
2021/05/22 01:35:27;;;;;;;0.70;0.60;;;9.80;99.90;;;10.23;100.00;-20960.34;5140278;27;20485;-72
2021/05/22 01:37:55;;;;;;;0.70;0.60;;;9.80;99.90;;;10.15;100.00;-20958.41;5134583;27;20469;-72
2021/05/22 01:40:22;;;;;;;0.70;0.60;;;9.80;99.90;;;10.15;100.00;-20958.41;5135899;27;20462;-75
2021/05/22 01:42:51;;;;;;;0.70;0.60;;;9.70;99.90;;;10.04;100.00;-20955.38;5135583;27;20544;-72
2021/05/22 01:45:28;;;;;;;0.67;0.53;;;9.70;99.90;;;10.03;100.00;-20955.09;5117617;27;20985;-72
2021/05/22 01:47:58;;;;;;;0.70;0.60;;;9.60;99.90;;;10.07;100.00;-20956.06;5116654;27;20451;-71
2021/05/22 01:50:29;;;;;;;0.70;0.60;;;9.60;99.90;;;10.04;100.00;-20955.38;5134228;27;20425;-72
2021/05/22 01:53:00;;;;;;;0.70;0.60;;;9.60;99.90;;;10.03;100.00;-20955.09;5133696;27;21006;-72
2021/05/22 01:55:29;;;;;;;0.70;0.60;;;9.60;99.90;;;10.01;100.00;-20954.53;5134868;27;20432;-72
2021/05/22 01:57:59;;;;;;;0.70;0.53;;;9.60;99.90;;;10.05;100.00;-20955.50;5151821;27;20457;-72
2021/05/22 02:00:27;;;;;;;0.70;0.60;;;9.60;99.90;;;10.03;100.00;-20955.09;5131533;27;20494;-75
2021/05/22 02:03:03;;;;;;;0.70;0.60;;;9.60;99.90;;;10.00;100.00;-20954.25;5117239;27;20998;-73
2021/05/22 02:05:32;;;;;;;0.70;0.60;;;9.60;99.90;;;10.05;100.00;-20955.66;5134147;27;20934;-72
2021/05/22 02:08:01;;;;;;;0.70;0.60;;;9.60;99.90;;;10.00;100.00;-20954.25;5117227;27;20444;-73
2021/05/22 02:10:31;;;;;;;0.70;0.50;;;9.60;99.90;;;9.97;100.00;-20953.44;5135123;27;20517;-71
2021/05/22 02:13:01;;;;;;;0.70;0.60;;;9.60;99.90;;;9.94;100.00;-20952.59;5134317;27;20886;-71
2021/05/22 02:15:31;;;;;;;0.70;0.57;;;9.60;99.90;;;9.95;100.00;-20952.88;5133975;27;20527;-73
2021/05/22 02:18:01;;;;;;;0.70;0.60;;;9.60;99.90;;;9.98;100.00;-20953.72;5151402;27;20454;-72
2021/05/22 02:20:30;;;;;;;0.70;0.60;;;9.60;99.90;;;9.94;100.00;-20952.59;5134861;27;20421;-72
2021/05/22 02:23:03;;;;;;;0.70;0.60;;;9.50;99.90;;;9.92;100.00;-20952.19;5133438;27;20472;-72
2021/05/22 02:25:31;;;;;;;0.70;0.60;;;9.50;99.90;;;9.84;100.00;-20949.97;5135270;27;20405;-70
2021/05/22 02:28:06;;;;;;;0.70;0.60;;;9.50;99.90;;;9.77;100.00;-20948.03;5129426;27;20432;-72
2021/05/22 02:30:36;;;;;;;0.70;0.60;;;9.40;99.90;;;9.86;100.00;-20950.38;5114349;28;20501;-71
2021/05/22 02:33:05;;;;;;;0.70;0.60;;;9.50;99.90;;;9.83;100.00;-20949.56;5114488;28;20418;-73
2021/05/22 02:35:36;;;;;;;0.70;0.50;;;9.50;99.90;;;9.77;100.00;-20947.88;5114621;27;20460;-73
2021/05/22 02:38:05;;;;;;;0.80;0.70;;;9.50;99.90;;;9.87;100.00;-20950.66;5133412;27;20572;-72
2021/05/22 02:40:33;;;;;;;0.70;0.60;;;9.50;99.90;;;9.86;100.00;-20950.38;5133299;27;20443;-72
2021/05/22 02:43:06;;;;;;;0.70;0.60;;;9.50;99.90;;;9.89;100.00;-20951.22;5132678;27;20548;-73
2021/05/22 02:45:40;;;;;;;0.70;0.60;;;9.50;99.90;;;9.90;100.00;-20951.50;5133483;27;20924;-72
2021/05/22 02:48:14;;;;;;;0.70;0.60;;;9.40;99.90;;;9.88;100.00;-20950.94;5116294;27;20421;-71
2021/05/22 02:50:44;;;;;;;0.70;0.60;;;9.40;99.90;;;9.86;100.00;-20950.38;5134879;27;20401;-72
2021/05/22 02:53:13;;;;;;;0.70;0.63;;;9.50;99.90;;;9.85;100.00;-20950.09;5120439;27;20941;-73
2021/05/22 02:55:41;;;;;;;0.70;0.60;;;9.50;99.90;;;9.83;100.00;-20949.56;5123827;27;20539;-71
2021/05/22 02:58:12;;;;;;;0.70;0.60;;;9.50;99.90;;;9.76;100.00;-20947.75;5133760;27;20950;-71
2021/05/22 03:00:41;;;;;;;0.70;0.60;;;9.40;99.90;;;9.81;100.00;-20949.13;5133521;27;20409;-72
2021/05/22 03:03:09;;;;;;;0.70;0.60;;;9.40;99.90;;;9.79;100.00;-20948.44;5133223;27;20556;-72
2021/05/22 03:05:38;;;;;;;0.70;0.60;;;9.40;99.90;;;9.77;100.00;-20947.88;5126850;27;20427;-72
2021/05/22 03:08:07;;;;;;;0.70;0.50;;;9.40;99.90;;;9.74;100.00;-20947.19;5132349;27;20452;-72
2021/05/22 03:10:37;;;;;;;0.70;0.60;;;9.40;99.90;;;9.74;100.00;-20947.19;5134639;27;20505;-70
2021/05/22 03:13:05;;;;;;;0.70;0.60;;;9.40;99.90;;;9.69;100.00;-20945.81;5131791;27;20449;-71
2021/05/22 03:15:34;;;;;;;0.70;0.60;;;9.30;99.90;;;9.76;100.00;-20947.63;5116244;27;20441;-71
2021/05/22 03:18:03;;;;;;;0.70;0.60;;;9.30;99.90;;;9.75;100.00;-20947.47;5133426;27;20421;-72
2021/05/22 03:20:30;;;;;;;0.70;0.60;;;9.40;99.90;;;9.72;100.00;-20946.66;5132085;27;20940;-72
2021/05/22 03:22:58;;;;;;;0.70;0.60;;;9.30;99.90;;;9.67;100.00;-20945.41;5133387;27;20492;-71
2021/05/22 03:25:25;;;;;;;0.70;0.60;;;9.30;99.90;;;9.65;100.00;-20944.84;5133133;28;20989;-71
2021/05/22 03:27:53;;;;;;;0.70;0.60;;;9.30;99.90;;;9.71;100.00;-20946.22;5133514;27;20470;-72
2021/05/22 03:30:22;;;;;;;0.70;0.60;;;9.30;99.90;;;9.72;100.00;-20946.66;5131533;27;20451;-71
2021/05/22 03:32:51;;;;;;;0.70;0.60;;;9.30;99.90;;;9.75;100.00;-20947.47;5133237;28;20425;-71
2021/05/22 03:35:18;;;;;;;0.70;0.57;;;9.30;99.90;;;9.64;100.00;-20944.56;5132185;28;20432;-72
2021/05/22 03:37:46;;;;;;;0.70;0.50;;;9.30;99.90;;;9.72;100.00;-20946.66;5116079;28;20461;-72
2021/05/22 03:40:14;;;;;;;0.70;0.60;;;9.40;99.90;;;9.76;100.00;-20947.75;5134364;27;20431;-71
2021/05/22 03:42:42;;;;;;;0.70;0.60;;;9.40;99.90;;;9.79;100.00;-20948.44;5133934;27;20465;-72
2021/05/22 03:45:11;;;;;;;0.70;0.60;;;9.40;99.90;;;9.85;100.00;-20950.09;5103806;28;20437;-72
2021/05/22 03:47:39;;;;;;;0.70;0.60;;;9.50;99.90;;;9.86;100.00;-20950.53;5126846;28;20437;-73
2021/05/22 03:50:08;;;;;;;0.70;0.60;;;9.50;99.90;;;9.79;100.00;-20948.44;5113474;28;20778;-72
2021/05/22 03:52:37;;;;;;;0.70;0.60;;;9.40;99.90;;;9.82;100.00;-20949.28;5133965;28;20462;-72
2021/05/22 03:55:06;;;;;;;0.70;0.60;;;9.40;99.90;;;9.83;100.00;-20949.56;5118581;27;20822;-72
2021/05/22 03:57:35;;;;;;;0.70;0.60;;;9.40;99.90;;;9.91;100.00;-20951.91;5138055;27;20446;-72
2021/05/22 04:00:03;;;;;;;0.70;0.60;;;9.50;99.90;;;9.98;100.00;-20953.72;5137798;27;20913;-74
2021/05/22 04:02:33;;;;;;;0.70;0.60;;;9.50;99.90;;;9.96;100.00;-20953.00;5134395;27;20518;-71
2021/05/22 04:05:00;;;;;;;0.70;0.63;;;9.50;99.90;;;9.98;100.00;-20953.72;5136139;27;20516;-72
2021/05/22 04:07:29;;;;;;;0.70;0.60;;;9.50;99.90;;;10.08;100.00;-20956.34;5135874;27;20872;-72
2021/05/22 04:09:56;;;;;;;0.70;0.57;;;9.60;99.90;;;10.19;100.00;-20959.25;5119762;27;20630;-71
2021/05/22 04:12:24;;;;;;;0.70;0.60;;;9.60;99.90;;;10.27;100.00;-20961.47;5138057;27;20424;-71
2021/05/22 04:14:51;;;;;;;0.70;0.60;;;9.70;99.90;;;10.40;100.00;-20965.19;5119102;27;20826;-71
2021/05/22 04:17:19;;;;;;;0.70;0.60;;;9.80;99.90;;;10.46;100.00;-20966.72;5136938;27;20415;-71
2021/05/22 04:19:46;;;;;;;0.70;0.60;;;9.90;99.90;;;10.47;100.00;-20967.00;5118315;27;20449;-73
2021/05/22 04:22:14;;;;;;;0.70;0.60;;;10.00;99.90;;;10.46;100.00;-20966.72;5136279;27;20466;-71
2021/05/22 04:24:43;;;;;;;0.70;0.60;;;10.00;99.90;;;10.68;100.00;-20972.53;5136102;27;20975;-72
2021/05/22 04:27:10;;;;;;;0.70;0.60;;;10.10;99.90;;;10.58;100.00;-20969.91;5136476;27;21022;-71
2021/05/22 04:29:38;;;;;;;0.70;0.60;;;10.10;99.90;;;10.56;100.00;-20969.34;5135205;27;20465;-72
2021/05/22 04:32:06;;;;;;;0.70;0.60;;;10.10;99.90;;;10.65;100.00;-20971.84;5124497;27;20443;-72
2021/05/22 04:34:34;;;;;;;0.80;0.70;;;10.10;99.90;;;10.69;100.00;-20972.81;5136048;27;20453;-72
2021/05/22 04:37:01;;;;;;;0.70;0.60;;;10.20;99.90;;;10.72;100.00;-20973.63;5122840;27;20452;-71
2021/05/22 04:39:29;;;;;;;0.70;0.60;;;10.30;99.90;;;10.75;100.00;-20974.47;5098221;28;20466;-71
2021/05/22 04:41:58;;;;;;;0.70;0.60;;;10.30;99.90;;;10.91;100.00;-20978.88;5116631;28;20468;-72
2021/05/22 04:44:25;;;;;;;0.70;0.70;;;10.30;99.90;;;10.95;100.00;-20980.00;5116120;27;20793;-72
2021/05/22 04:46:53;;;;;;;0.70;0.60;;;10.40;99.90;;;10.92;100.00;-20979.03;5137344;27;20429;-72
2021/05/22 04:49:20;;;;;;;0.70;0.60;;;10.50;99.90;;;10.98;100.00;-20980.69;5136014;27;20500;-71
2021/05/22 04:51:48;;;;;;;0.70;0.67;;;10.50;99.90;;;11.00;100.00;-20981.25;5117595;27;20454;-76
2021/05/22 04:54:17;;;;;;;0.70;0.60;;;10.50;99.90;;;11.09;100.00;-20983.88;5136861;27;20508;-72
2021/05/22 04:56:44;;;;;;;0.70;0.70;;;10.60;99.90;;;11.18;100.00;-20986.22;5136168;27;20433;-73
2021/05/22 04:59:13;;;;;;;0.70;0.60;;;10.60;99.90;;;11.14;100.00;-20985.09;5152449;27;21007;-73
2021/05/22 05:01:41;;;;;;;0.70;0.60;;;10.70;99.90;;;11.28;100.00;-20988.84;5121825;27;20827;-73
2021/05/22 05:04:09;;;;;;;0.70;0.60;;;10.70;99.90;;;11.21;100.00;-20986.91;5132075;27;20450;-74
2021/05/22 05:06:37;;;;;;;0.70;0.60;;;10.80;99.90;;;11.27;100.00;-20988.56;5133216;27;20438;-73
2021/05/22 05:09:06;;;;;;;0.70;0.60;;;10.80;99.90;;;11.42;100.00;-20992.72;5117340;27;20825;-74
2021/05/22 05:11:35;;;;;;;0.70;0.60;;;10.80;99.90;;;11.40;100.00;-20992.03;5135289;27;20499;-75
2021/05/22 05:14:03;;;;;;;0.70;0.70;;;10.90;99.90;;;11.38;100.00;-20991.59;5112152;28;20465;-73
2021/05/22 05:16:32;;;;;;;0.70;0.60;;;11.00;99.90;;;11.39;100.00;-20991.88;5129803;27;20436;-73
2021/05/22 05:18:59;;;;;;;0.70;0.60;;;11.00;99.90;;;11.38;100.00;-20991.59;5120155;27;20429;-76
2021/05/22 05:21:27;;;;;;;0.70;0.57;;;11.00;99.90;;;11.43;100.00;-20992.84;5136564;27;20473;-73
2021/05/22 05:23:54;;;;;;;0.80;0.70;;;11.00;99.90;;;11.45;100.00;-20993.53;5132865;27;20472;-71
2021/05/22 05:26:22;;;;;;;0.70;0.60;;;11.10;99.90;;;11.54;100.00;-20996.03;5135412;27;20551;-73
2021/05/22 05:28:50;;;;;;;0.70;0.70;;;11.10;99.90;;;11.63;100.00;-20998.25;5135988;27;20466;-71
2021/05/22 05:31:17;;;;;;;0.70;0.60;;;11.20;99.90;;;11.55;100.00;-20996.31;5135183;27;20428;-72
2021/05/22 05:33:46;;;;;;;0.80;0.70;;;11.20;99.90;;;11.65;100.00;-20998.78;5134236;27;20494;-73
2021/05/22 05:36:13;;;;;;;0.70;0.60;;;11.20;99.90;;;11.74;100.00;-21001.28;5135980;27;20409;-72
2021/05/22 05:38:41;;;;;;;0.70;0.70;;;11.20;99.90;;;11.85;100.00;-21004.31;5136122;27;20547;-71
2021/05/22 05:41:09;;;;;;;0.70;0.60;;;11.30;99.90;;;11.74;100.00;-21001.41;5133044;27;20447;-71
2021/05/22 05:43:36;;;;;;;0.70;0.70;;;11.40;99.90;;;11.92;100.00;-21006.25;5131303;27;20969;-70
2021/05/22 05:46:04;;;;;;;0.70;0.60;;;11.40;99.90;;;12.03;100.00;-21009.16;5122643;27;20494;-70
2021/05/22 05:48:31;;;;;;;0.80;0.80;;;11.50;99.90;;;12.19;100.00;-21013.44;5114358;28;20428;-72
2021/05/22 05:51:00;;;;;;;0.70;0.60;;;11.60;99.90;;;12.02;100.00;-21009.00;5126909;27;20446;-72
2021/05/22 05:53:28;;;;;;;0.70;0.60;;;11.60;99.90;;;12.03;100.00;-21009.16;5117154;27;20849;-74
2021/05/22 05:55:57;;;;;;;0.80;0.70;;;11.60;99.90;;;12.15;100.00;-21012.31;5134508;27;20500;-74
2021/05/22 05:58:24;;;;;;;0.70;0.60;;;11.60;99.90;;;12.22;100.00;-21014.25;5132927;27;20489;-79
2021/05/22 06:00:52;;;;;;;0.80;0.70;;;11.70;99.90;;;12.31;100.00;-21016.75;5135525;27;20419;-71
2021/05/22 06:03:26;;;;;;;0.70;0.70;;;11.80;99.90;;;12.49;100.00;-21021.72;5134069;27;21058;-71
2021/05/22 06:05:53;;;;;;;0.70;0.60;;;11.80;99.90;;;12.66;100.00;-21026.13;5130923;27;20793;-72
2021/05/22 06:08:22;;;;;;;0.70;0.60;;;11.90;99.90;;;12.44;100.00;-21020.19;5125556;27;20449;-74
2021/05/22 06:10:51;;;;;;;0.70;0.60;;;11.90;99.90;;;12.44;100.00;-21020.34;5129848;27;20420;-72
2021/05/22 06:13:24;;;;;;;0.70;0.63;;;11.90;99.90;;;12.48;100.00;-21021.44;5130726;27;20459;-75
2021/05/22 06:18:32;;;;;;;0.70;0.60;;;12.00;99.90;;;12.57;100.00;-21023.94;5113587;28;20431;-71
2021/05/22 06:21:01;;;;;;;0.70;0.60;;;12.00;99.90;;;12.85;100.00;-21031.22;5133709;27;20431;-70
2021/05/22 06:23:30;;;;;;;0.70;0.60;;;12.20;99.90;;;12.77;100.00;-21029.16;5134126;27;20551;-73
2021/05/22 06:25:58;;;;;;;0.70;0.60;;;12.30;99.90;;;12.95;100.00;-21034.00;5133227;27;20453;-72
2021/05/22 06:28:27;;;;;;;0.70;0.60;;;12.40;99.90;;;12.95;100.00;-21034.13;5131402;27;20493;-78
2021/05/22 06:30:56;;;;;;;0.70;0.70;;;12.50;99.90;;;13.00;100.00;-21035.38;5133829;27;20443;-74
2021/05/22 06:33:24;;;;;;;0.80;0.70;;;12.40;99.90;;;12.68;100.00;-21026.69;5133928;27;20830;-70
2021/05/22 06:35:52;;;;;;;0.70;0.60;;;12.30;99.90;;;12.71;100.00;-21027.66;5129562;27;20500;-71
2021/05/22 06:38:21;;;;;;;0.70;0.60;;;12.20;99.90;;;12.63;100.00;-21025.31;5113879;28;20458;-71
2021/05/22 06:40:51;;;;;;;0.70;0.60;;;12.20;99.90;;;12.81;100.00;-21030.28;5113680;28;20442;-76
2021/05/22 06:43:20;;;;;;;0.70;0.60;;;12.30;99.90;;;13.16;100.00;-21039.66;5115273;27;20452;-73
2021/05/22 06:45:58;;;;;;;0.70;0.70;;;12.50;99.90;;;13.23;100.00;-21041.56;5116700;27;20435;-74
2021/05/22 06:48:26;;;;;;;0.80;0.70;;;12.80;99.90;;;13.59;100.00;-21051.38;5133382;27;20417;-72
2021/05/22 06:50:55;;;;;;;0.70;0.60;;;12.90;99.90;;;13.52;100.00;-21049.56;5114884;27;20450;-72
2021/05/22 06:53:23;;;;;;;0.70;0.60;;;12.90;99.90;;;13.29;100.00;-21043.25;5116933;27;20858;-71
2021/05/22 06:55:52;;;;;;;0.70;0.60;;;12.80;99.90;;;13.16;100.00;-21039.66;5134941;27;20420;-73
2021/05/22 06:58:19;;;;;;;0.70;0.70;;;12.70;99.90;;;13.04;100.00;-21036.47;5115998;27;20880;-74
2021/05/22 07:00:47;;;;;;;0.80;0.70;;;12.50;99.90;;;12.92;100.00;-21033.31;5123664;27;20907;-74
2021/05/22 07:03:15;;;;;;;0.70;0.60;;;12.50;99.90;;;12.78;100.00;-21029.44;5132064;27;21091;-75
2021/05/22 07:05:43;;;;;;;0.70;0.60;;;12.30;99.90;;;12.99;100.00;-21035.09;5132384;27;20431;-71
2021/05/22 07:08:11;;;;;;;0.80;0.70;;;12.30;99.90;;;12.70;100.00;-21027.22;5130407;27;20978;-72
2021/05/22 07:10:39;;;;;;;0.73;0.70;;;12.30;99.90;;;12.28;100.00;-21015.91;5133962;27;20410;-75
2021/05/22 07:13:08;;;;;;;0.80;0.70;;;11.90;99.90;;;11.77;100.00;-21002.09;5115378;27;20548;-73
2021/05/22 07:15:35;;;;;;;0.80;0.70;;;11.60;99.90;;;11.45;100.00;-20993.41;5133577;27;20434;-73
2021/05/22 07:18:03;;;;;;;0.70;0.60;;;11.20;99.90;;;11.13;100.00;-20984.97;5115142;27;20971;-74
2021/05/22 07:20:31;;;;;;;0.70;0.60;;;11.00;99.90;;;11.00;100.00;-20981.38;5130271;27;20488;-73
2021/05/22 07:22:59;;;;;;;0.70;0.60;;;10.80;99.90;;;10.79;100.00;-20975.72;5131011;27;20485;-79
2021/05/22 07:25:26;;;;;;;0.70;0.60;;;10.60;99.90;;;10.79;100.00;-20975.56;5132979;27;20445;-74
2021/05/22 07:27:56;;;;;;;0.70;0.60;;;10.60;99.90;;;10.76;100.00;-20974.88;5116079;28;20432;-75
2021/05/22 07:30:25;;;;;;;0.70;0.60;;;10.60;99.90;;;10.77;100.00;-20975.16;5134350;27;20432;-75
2021/05/22 07:32:53;;;;;;;0.70;0.60;;;10.50;99.90;;;10.84;100.00;-20976.94;5113560;28;20436;-76
2021/05/22 07:35:20;;;;;;;0.70;0.60;;;10.60;99.90;;;11.00;100.00;-20981.25;5132563;27;20942;-75
2021/05/22 07:37:48;;;;;;;0.80;0.70;;;10.70;99.90;;;11.01;100.00;-20981.66;5119188;27;20504;-74
2021/05/22 07:40:16;;;;;;;0.70;0.60;;;10.80;99.90;;;11.12;100.00;-20984.56;5128932;28;20446;-74
2021/05/22 07:42:50;;;;;;;0.70;0.60;;;10.80;99.90;;;11.19;100.00;-20986.34;5102798;28;20532;-75
2021/05/22 07:45:18;;;;;;;0.70;0.60;;;10.90;99.90;;;11.19;100.00;-20986.34;5150518;27;20940;-74
2021/05/22 07:47:47;;;;;;;0.70;0.60;;;10.90;99.90;;;11.26;100.00;-20988.28;5133683;28;20424;-73
2021/05/22 07:50:16;;;;;;;0.70;0.60;;;11.00;99.90;;;11.22;100.00;-20987.19;5133406;28;20467;-75
2021/05/22 07:52:45;;;;;;;0.70;0.63;;;10.90;99.90;;;11.24;100.00;-20987.75;5133930;28;20435;-74
2021/05/22 07:55:13;;;;;;;0.70;0.60;;;10.90;99.90;;;11.24;100.00;-20987.75;5148138;27;20939;-75
2021/05/22 07:57:41;;;;;;;0.70;0.60;;;11.00;99.90;;;11.34;100.00;-20990.50;5119025;27;20428;-77
2021/05/22 08:00:12;;;;;;;0.70;0.60;;;11.00;99.90;;;11.35;100.00;-20990.78;5114317;28;20479;-75
2021/05/22 08:02:41;;;;;;;0.70;0.60;;;11.00;99.90;;;11.44;100.00;-20993.13;5132921;28;20523;-76
2021/05/22 08:05:13;;;;;;;0.70;0.60;;;11.10;99.90;;;11.36;100.00;-20991.19;5133333;28;20487;-76
2021/05/22 08:07:41;;;;;;;0.70;0.60;;;11.10;99.90;;;11.45;100.00;-20993.53;5129604;28;20522;-75
2021/05/22 08:10:12;;;;;;;0.70;0.60;;;11.10;99.90;;;11.43;100.00;-20993.00;5119802;28;20438;-76
2021/05/22 08:12:40;;;;;;;0.70;0.60;;;11.10;99.90;;;11.53;100.00;-20995.75;5133879;28;20797;-77
2021/05/22 08:15:08;;;;;;;0.80;0.70;;;11.10;99.90;;;11.51;100.00;-20995.19;5130584;28;20436;-75
2021/05/22 08:17:36;;;;;;;0.80;0.70;;;11.20;99.90;;;11.47;100.00;-20993.97;5133470;28;20433;-74
2021/05/22 08:20:06;;;;;;;0.70;0.70;;;11.10;99.90;;;11.53;100.00;-20995.75;5133940;27;20419;-78
2021/05/22 08:22:34;;;;;;;0.80;0.70;;;11.20;99.90;;;11.56;100.00;-20996.59;5131452;28;20910;-76
2021/05/22 08:25:03;;;;;;;0.70;0.60;;;11.20;99.90;;;11.51;100.00;-20995.19;5115440;28;20455;-78
2021/05/22 08:27:30;;;;;;;0.70;0.70;;;11.20;99.90;;;11.71;100.00;-21000.44;5133767;27;20522;-75
2021/05/22 08:30:05;;;;;;;0.70;0.60;;;11.30;99.90;;;11.71;100.00;-21000.44;5116565;28;20840;-73
2021/05/22 08:32:32;;;;;;;0.70;0.60;;;11.30;99.90;;;11.66;100.00;-20999.22;5133239;28;20796;-75
2021/05/22 08:35:00;;;;;;;0.70;0.67;;;11.30;99.90;;;11.93;100.00;-21006.38;5116416;28;20809;-76
2021/05/22 08:37:31;;;;;;;0.70;0.70;;;11.40;99.90;;;12.02;100.00;-21008.88;5129551;28;20486;-74
2021/05/22 08:39:59;;;;;;;0.70;0.60;;;11.50;99.90;;;12.24;100.00;-21014.94;5111684;28;20444;-76
2021/05/22 08:42:29;;;;;;;0.80;0.70;;;11.70;99.90;;;12.47;100.00;-21021.03;5115998;28;20884;-73
2021/05/22 08:45:09;;;;;;;0.70;0.60;;;11.90;99.90;;;12.72;100.00;-21027.78;5123751;27;20817;-74
2021/05/22 08:47:38;;;;;;;0.70;0.60;;;12.10;99.90;;;12.80;100.00;-21030.00;5134472;27;20423;-74
2021/05/22 08:50:09;;;;;;;0.70;0.60;;;12.10;99.90;;;12.65;100.00;-21026.00;5133480;27;20440;-75
2021/05/22 08:52:37;;;;;;;0.70;0.60;;;12.10;99.90;;;12.40;100.00;-21019.22;5135635;27;20412;-73
2021/05/22 08:55:08;;;;;;;0.70;0.60;;;12.00;99.90;;;12.22;100.00;-21014.41;5133946;27;20527;-74
2021/05/22 08:57:36;;;;;;;0.70;0.60;;;11.90;99.90;;;12.28;100.00;-21015.91;5116323;27;20543;-78
2021/05/22 09:00:09;;;;;;;0.70;0.70;;;11.80;99.90;;;12.21;100.00;-21014.00;5135115;27;20528;-76
2021/05/22 09:02:38;;;;;;;0.70;0.60;;;11.70;99.90;;;12.05;100.00;-21009.84;5135629;27;20431;-75
2021/05/22 09:05:21;;;;;;;0.70;0.60;;;11.60;99.90;;;11.90;100.00;-21005.69;5134598;27;20817;-74
2021/05/22 09:07:51;;;;;;;0.70;0.60;;;11.60;99.90;;;11.85;100.00;-21004.31;5137113;27;20574;-75
2021/05/22 09:10:23;;;;;;;0.70;0.60;;;11.50;99.90;;;11.91;100.00;-21005.97;5133380;27;20773;-75
2021/05/22 09:12:55;;;;;;;0.70;0.60;;;11.60;99.90;;;11.88;100.00;-21005.16;5116827;28;20907;-72
2021/05/22 09:15:25;;;;;;;0.70;0.60;;;11.50;99.90;;;11.93;100.00;-21006.38;5134047;27;20430;-72
2021/05/22 09:17:56;;;;;;;0.70;0.60;;;11.60;99.90;;;12.03;100.00;-21009.28;5135069;27;20426;-73
2021/05/22 09:20:28;;;;;;;0.70;0.60;;;11.60;99.90;;;12.00;100.00;-21008.47;5132349;27;20501;-75
2021/05/22 09:23:00;;;;;;;0.70;0.60;;;11.60;99.90;;;12.03;100.00;-21009.16;5116155;28;20450;-73
2021/05/22 09:25:30;;;;;;;0.70;0.60;;;11.60;99.90;;;12.14;100.00;-21012.19;5100771;27;20880;-73
2021/05/22 09:27:59;;;;;;;0.70;0.60;;;11.60;99.90;;;12.16;100.00;-21012.59;5133042;27;20440;-72
2021/05/22 09:30:29;;;;;;;0.73;0.70;;;11.60;99.90;;;12.20;100.00;-21013.72;5132049;27;20496;-73
2021/05/22 09:32:57;;;;;;;0.70;0.70;;;11.70;99.90;;;12.20;100.00;-21013.72;5125399;27;20435;-73
2021/05/22 09:35:27;;;;;;;0.70;0.60;;;11.70;99.90;;;12.25;100.00;-21015.09;5123662;27;20482;-72
2021/05/22 09:37:58;;;;;;;0.70;0.60;;;11.80;99.90;;;12.35;100.00;-21017.84;5113509;27;20797;-72
2021/05/22 09:40:29;;;;;;;0.70;0.60;;;11.80;99.90;;;12.30;100.00;-21016.47;5136152;27;20426;-73
2021/05/22 09:43:00;;;;;;;0.70;0.70;;;11.90;99.90;;;12.37;100.00;-21018.41;5127649;27;20452;-73
2021/05/22 09:45:35;;;;;;;0.80;0.70;;;11.90;99.90;;;12.46;100.00;-21020.88;5118106;27;20458;-73
2021/05/22 09:48:16;;;;;;;0.80;0.70;;;11.90;99.90;;;12.34;100.00;-21017.56;5130262;27;20468;-73
2021/05/22 09:50:49;;;;;;;0.80;0.70;;;11.90;99.90;;;12.33;100.00;-21017.28;5131890;27;20773;-76
2021/05/22 09:53:30;;;;;;;0.70;0.67;;;12.00;99.90;;;12.30;100.00;-21016.63;5115630;28;20440;-74
2021/05/22 09:56:20;;;;;;;0.70;0.70;;;12.00;99.90;;;12.40;100.00;-21019.22;5116117;27;20513;-73
2021/05/22 09:58:50;;;;;;;0.70;0.60;;;12.00;99.90;;;12.57;100.00;-21023.94;5117258;27;20425;-73
2021/05/22 10:01:20;;;;;;;0.77;0.70;;;12.00;99.90;;;12.70;100.00;-21027.38;5115022;28;20979;-74
2021/05/22 10:03:48;;;;;;;0.70;0.60;;;12.10;99.90;;;12.62;100.00;-21025.03;5118301;27;20475;-75
2021/05/22 10:06:17;;;;;;;0.70;0.60;;;12.20;99.90;;;12.75;100.00;-21028.75;5133568;27;20481;-74
2021/05/22 10:08:46;;;;;;;0.70;0.70;;;12.30;99.90;;;12.90;100.00;-21032.75;5115903;27;20502;-75
2021/05/22 10:11:14;;;;;;;0.70;0.70;;;12.40;99.90;;;13.26;100.00;-21042.56;5135449;27;20432;-73
2021/05/22 10:13:43;;;;;;;0.70;0.60;;;12.50;99.90;;;12.97;100.00;-21034.69;5136130;27;20431;-73
2021/05/22 10:16:11;;;;;;;0.80;0.70;;;12.50;99.90;;;13.03;100.00;-21036.34;5130462;27;20448;-77
2021/05/22 10:18:40;;;;;;;0.80;0.70;;;12.60;99.90;;;13.09;100.00;-21037.72;5112842;27;20438;-76
2021/05/22 10:21:09;;;;;;;0.73;0.63;;;12.60;99.90;;;12.99;100.00;-21035.22;5134135;27;20601;-75